createdAt,value
2018-03-22T00:00:38.443Z,9.25
2018-03-22T00:03:05.895Z,9.50
2018-03-22T00:05:33.685Z,10.57
2018-03-22T00:08:01.138Z,10.48
2018-03-22T00:10:28.603Z,10.20
2018-03-22T00:12:56.269Z,8.88
2018-03-22T00:15:23.738Z,10.38
2018-03-22T00:17:51.265Z,10.88
2018-03-22T00:20:18.732Z,12.27
2018-03-22T00:22:46.196Z,11.52
2018-03-22T00:25:13.664Z,10.68
2018-03-22T00:27:41.128Z,11.52
2018-03-22T00:30:08.871Z,11.95
2018-03-22T00:32:36.333Z,10.30
2018-03-22T00:35:03.796Z,10.63
2018-03-22T00:37:31.408Z,10.90
2018-03-22T00:39:58.865Z,10.10
2018-03-22T00:42:26.381Z,9.27
2018-03-22T00:44:53.942Z,10.38
2018-03-22T00:47:21.664Z,9.45
2018-03-22T00:49:49.123Z,8.45
2018-03-22T00:52:16.581Z,9.20
2018-03-22T00:54:44.039Z,10.35
2018-03-22T00:57:11.499Z,9.77
2018-03-22T00:59:39.282Z,9.20
2018-03-22T01:02:06.737Z,9.10
2018-03-22T01:04:34.504Z,8.50
2018-03-22T01:07:01.960Z,8.38
2018-03-22T01:09:29.434Z,9.65
2018-03-22T01:11:57.108Z,11.30
2018-03-22T01:14:24.563Z,11.07
2018-03-22T01:16:52.100Z,10.27
2018-03-22T01:19:19.866Z,9.90
2018-03-22T01:21:47.541Z,11.02
2018-03-22T01:24:15.008Z,10.60
2018-03-22T01:26:43.453Z,10.95
2018-03-22T01:29:10.933Z,11.70
2018-03-22T01:31:38.552Z,10.93
2018-03-22T01:34:06.020Z,12.15
2018-03-22T01:36:33.605Z,10.60
2018-03-22T01:39:01.061Z,11.30
2018-03-22T01:41:28.533Z,11.35
2018-03-22T01:43:55.989Z,10.00
2018-03-22T01:46:23.602Z,11.48
2018-03-22T01:48:51.207Z,10.93
2018-03-22T01:51:18.887Z,12.23
2018-03-22T01:53:46.349Z,12.65
2018-03-22T01:56:14.584Z,10.73
2018-03-22T01:58:42.177Z,9.88
2018-03-22T02:01:09.724Z,11.10
2018-03-22T02:03:37.487Z,9.88
2018-03-22T02:06:04.944Z,10.77
2018-03-22T02:08:32.717Z,11.55
2018-03-22T02:11:00.196Z,10.95
2018-03-22T02:13:27.656Z,13.48
2018-03-22T02:15:55.393Z,10.90
2018-03-22T02:18:23.156Z,11.73
2018-03-22T02:20:50.611Z,11.43
2018-03-22T02:23:18.247Z,10.30
2018-03-22T02:25:45.835Z,11.12
2018-03-22T02:28:13.604Z,12.50
2018-03-22T02:30:41.057Z,11.23
2018-03-22T02:33:08.837Z,11.48
2018-03-22T02:35:36.523Z,10.43
2018-03-22T02:38:04.046Z,11.88
2018-03-22T02:40:31.535Z,12.52
2018-03-22T02:42:58.984Z,12.55
2018-03-22T02:45:26.727Z,12.05
2018-03-22T02:47:54.493Z,12.20
2018-03-22T02:50:22.181Z,11.70
2018-03-22T02:52:49.726Z,12.40
2018-03-22T02:55:17.187Z,13.00
2018-03-22T02:57:44.869Z,11.43
2018-03-22T03:00:12.333Z,11.60
2018-03-22T03:02:39.851Z,12.48
2018-03-22T03:05:07.621Z,13.40
2018-03-22T03:07:35.296Z,11.30
2018-03-22T03:10:02.760Z,11.45
2018-03-22T03:12:30.227Z,12.02
2018-03-22T03:14:57.691Z,13.48
2018-03-22T03:17:25.216Z,11.50
2018-03-22T03:19:52.692Z,12.80
2018-03-22T03:22:20.163Z,12.20
2018-03-22T03:24:47.621Z,13.48
2018-03-22T03:27:15.092Z,11.52
2018-03-22T03:29:42.548Z,13.45
2018-03-22T03:32:10.004Z,12.20
2018-03-22T03:34:37.573Z,13.02
2018-03-22T03:37:05.134Z,12.73
2018-03-22T03:39:32.584Z,10.95
2018-03-22T03:42:00.060Z,13.38
2018-03-22T03:44:27.570Z,13.30
2018-03-22T03:46:55.019Z,12.70
2018-03-22T03:49:22.484Z,13.45
2018-03-22T03:51:49.948Z,14.23
2018-03-22T03:54:17.608Z,13.48
2018-03-22T03:56:45.071Z,13.62
2018-03-22T03:59:12.523Z,12.60
2018-03-22T04:01:39.992Z,13.55
2018-03-22T04:04:07.444Z,12.63
2018-03-22T04:06:34.907Z,14.38
2018-03-22T04:09:02.363Z,14.10
2018-03-22T04:11:29.827Z,13.75
2018-03-22T04:13:57.295Z,13.35
2018-03-22T04:16:24.832Z,13.82
2018-03-22T04:18:52.438Z,12.88
2018-03-22T04:21:19.894Z,13.13
2018-03-22T04:23:47.354Z,11.95
2018-03-22T04:26:14.960Z,13.27
2018-03-22T04:28:42.724Z,13.85
2018-03-22T04:31:10.491Z,12.93
2018-03-22T04:33:38.265Z,13.10
2018-03-22T04:36:06.020Z,13.43
2018-03-22T04:38:33.484Z,13.45
2018-03-22T04:41:01.241Z,14.07
2018-03-22T04:43:28.700Z,13.68
2018-03-22T04:45:56.187Z,13.95
2018-03-22T04:48:23.925Z,13.02
2018-03-22T04:50:51.466Z,14.18
2018-03-22T04:53:19.156Z,14.02
2018-03-22T04:55:47.377Z,14.52
2018-03-22T04:58:14.836Z,13.93
2018-03-22T05:00:42.432Z,13.93
2018-03-22T05:03:09.920Z,14.93
2018-03-22T05:05:37.561Z,14.43
2018-03-22T05:08:05.044Z,15.00
2018-03-22T05:10:32.589Z,14.73
2018-03-22T05:13:00.087Z,13.65
2018-03-22T05:15:27.580Z,15.55
2018-03-22T05:17:55.072Z,14.55
2018-03-22T05:20:23.319Z,14.05
2018-03-22T05:22:50.788Z,16.35
2018-03-22T05:25:18.406Z,16.95
2018-03-22T05:27:45.864Z,17.80
2018-03-22T05:30:13.468Z,17.70
2018-03-22T05:32:40.951Z,16.83
2018-03-22T05:35:08.604Z,14.43
2018-03-22T05:37:36.075Z,16.40
2018-03-22T05:40:04.304Z,17.00
2018-03-22T05:42:31.769Z,17.02
2018-03-22T05:44:59.468Z,17.50
2018-03-22T05:47:26.952Z,16.50
2018-03-22T05:49:54.614Z,19.55
2018-03-22T05:52:22.128Z,18.05
2018-03-22T05:54:49.588Z,18.08
2018-03-22T05:57:17.073Z,20.52
2018-03-22T05:59:44.540Z,18.25
2018-03-22T06:02:12.031Z,19.35
2018-03-22T06:04:39.730Z,20.52
2018-03-22T06:07:07.188Z,19.87
2018-03-22T06:09:34.665Z,19.10
2018-03-22T06:12:02.328Z,19.20
2018-03-22T06:14:29.794Z,21.10
2018-03-22T06:16:57.260Z,22.83
2018-03-22T06:19:24.798Z,21.20
2018-03-22T06:21:52.566Z,22.40
2018-03-22T06:24:20.162Z,21.92
2018-03-22T06:26:47.769Z,20.40
2018-03-22T06:29:15.245Z,21.08
2018-03-22T06:31:42.717Z,21.30
2018-03-22T06:34:10.248Z,21.12
2018-03-22T06:36:37.708Z,21.50
2018-03-22T06:39:05.171Z,21.40
2018-03-22T06:41:32.633Z,23.20
2018-03-22T06:44:00.097Z,20.80
2018-03-22T06:46:28.351Z,22.42
2018-03-22T06:48:55.817Z,21.62
2018-03-22T06:51:23.453Z,19.67
2018-03-22T06:53:51.041Z,21.23
2018-03-22T06:56:18.513Z,19.77
2018-03-22T06:58:45.971Z,19.90
2018-03-22T07:01:13.613Z,17.05
2018-03-22T07:03:41.097Z,19.55
2018-03-22T07:06:08.567Z,18.70
2018-03-22T07:08:36.040Z,18.60
2018-03-22T07:11:03.503Z,19.12
2018-03-22T07:13:31.013Z,18.80
2018-03-22T07:15:58.484Z,20.75
2018-03-22T07:18:26.710Z,20.27
2018-03-22T07:20:54.329Z,18.08
2018-03-22T07:23:22.063Z,22.73
2018-03-22T07:25:49.527Z,21.77
2018-03-22T07:28:17.208Z,22.30
2018-03-22T07:30:44.768Z,21.27
2018-03-22T07:33:12.226Z,29.37
2018-03-22T07:35:39.890Z,22.33
2018-03-22T07:38:08.120Z,25.05
2018-03-22T07:40:35.583Z,25.92
2018-03-22T07:43:08.904Z,27.52
2018-03-22T07:45:36.564Z,24.85
2018-03-22T07:48:04.025Z,22.98
2018-03-22T07:50:31.503Z,28.20
2018-03-22T07:52:59.235Z,26.75
2018-03-22T07:55:26.732Z,25.40
2018-03-22T07:57:54.315Z,28.67
2018-03-22T08:00:22.756Z,25.12
2018-03-22T08:02:50.232Z,24.60
2018-03-22T08:05:17.699Z,25.27
2018-03-22T08:07:45.175Z,26.08
2018-03-22T08:10:12.681Z,26.70
2018-03-22T08:12:40.145Z,24.33
2018-03-22T08:15:07.896Z,23.30
2018-03-22T08:17:35.364Z,23.15
2018-03-22T08:20:02.827Z,23.55
2018-03-22T08:22:30.309Z,25.25
2018-03-22T08:24:58.040Z,23.60
2018-03-22T08:27:25.614Z,21.87
2018-03-22T08:29:53.267Z,23.20
2018-03-22T08:32:21.023Z,22.27
2018-03-22T08:34:48.480Z,20.80
2018-03-22T08:37:15.947Z,20.85
2018-03-22T08:39:43.435Z,19.92
2018-03-22T08:42:10.929Z,18.62
2018-03-22T08:44:38.620Z,20.25
2018-03-22T08:47:06.092Z,18.12
2018-03-22T08:49:33.848Z,19.70
2018-03-22T08:52:01.608Z,19.55
2018-03-22T08:54:29.064Z,18.45
2018-03-22T08:56:56.832Z,19.23
2018-03-22T08:59:24.292Z,17.98
2018-03-22T09:01:52.052Z,18.98
2018-03-22T09:04:19.516Z,17.52
2018-03-22T09:06:46.968Z,19.50
2018-03-22T09:09:14.428Z,16.40
2018-03-22T09:11:42.349Z,17.23
2018-03-22T09:14:09.950Z,20.00
2018-03-22T09:16:37.420Z,17.90
2018-03-22T09:19:04.880Z,20.70
2018-03-22T09:21:32.351Z,18.85
2018-03-22T09:23:59.984Z,18.67
2018-03-22T09:26:27.480Z,18.87
2018-03-22T09:28:55.021Z,17.00
2018-03-22T09:31:22.485Z,18.73
2018-03-22T09:33:50.716Z,16.52
2018-03-22T09:36:18.317Z,17.58
2018-03-22T09:38:45.779Z,18.73
2018-03-22T09:41:13.538Z,18.00
2018-03-22T09:43:41.304Z,18.33
2018-03-22T09:46:08.764Z,17.40
2018-03-22T09:48:36.223Z,17.48
2018-03-22T09:51:03.977Z,16.70
2018-03-22T09:53:31.898Z,15.45
2018-03-22T09:55:59.420Z,15.50
2018-03-22T09:58:27.919Z,16.52
2018-03-22T10:00:55.392Z,16.15
2018-03-22T10:03:22.849Z,14.55
2018-03-22T10:05:50.416Z,17.45
2018-03-22T10:08:18.029Z,16.77
2018-03-22T10:10:45.711Z,15.88
2018-03-22T10:13:13.248Z,15.60
2018-03-22T10:15:41.012Z,15.93
2018-03-22T10:18:08.468Z,16.15
2018-03-22T10:20:35.928Z,14.87
2018-03-22T10:23:03.399Z,15.82
2018-03-22T10:25:30.864Z,15.30
2018-03-22T10:27:58.540Z,15.02
2018-03-22T10:30:26.008Z,14.93
2018-03-22T10:32:53.528Z,15.00
2018-03-22T10:35:20.996Z,14.90
2018-03-22T10:37:48.672Z,14.80
2018-03-22T10:40:16.132Z,14.43
2018-03-22T10:42:43.621Z,13.35
2018-03-22T10:45:11.084Z,15.70
2018-03-22T10:47:38.540Z,15.20
2018-03-22T10:50:06.046Z,13.30
2018-03-22T10:52:33.707Z,13.82
2018-03-22T10:55:01.191Z,13.65
2018-03-22T10:57:29.416Z,14.40
2018-03-22T10:59:56.880Z,14.55
2018-03-22T11:02:30.161Z,14.40
2018-03-22T11:04:57.624Z,16.12
2018-03-22T11:07:25.084Z,17.60
2018-03-22T11:09:52.580Z,15.90
2018-03-22T11:12:20.229Z,14.45
2018-03-22T11:14:47.988Z,15.40
2018-03-22T11:17:15.756Z,15.80
2018-03-22T11:19:43.236Z,16.15
2018-03-22T11:22:11.512Z,15.50
2018-03-22T11:24:38.976Z,17.48
2018-03-22T11:27:06.504Z,17.42
2018-03-22T11:29:34.198Z,17.10
2018-03-22T11:32:01.659Z,15.93
2018-03-22T11:34:29.151Z,18.15
2018-03-22T11:36:56.619Z,15.48
2018-03-22T11:39:24.112Z,14.32
2018-03-22T11:41:51.792Z,14.10
2018-03-22T11:44:19.257Z,16.98
2018-03-22T11:46:46.785Z,14.50
2018-03-22T11:49:14.252Z,13.55
2018-03-22T11:51:41.757Z,14.60
2018-03-22T11:54:09.225Z,14.05
2018-03-22T11:56:37.255Z,12.35
2018-03-22T11:59:04.934Z,12.02
2018-03-22T12:01:32.609Z,10.25
2018-03-22T12:04:00.072Z,11.40
2018-03-22T12:06:27.688Z,11.23
2018-03-22T12:08:55.438Z,10.80
2018-03-22T12:11:23.198Z,10.38
2018-03-22T12:13:50.985Z,10.15
2018-03-22T12:16:18.735Z,9.70
2018-03-22T12:18:46.499Z,9.98
2018-03-22T12:21:13.956Z,8.60
2018-03-22T12:23:41.727Z,8.38
2018-03-22T12:26:09.185Z,8.18
2018-03-22T12:28:36.865Z,8.50
2018-03-22T12:31:04.360Z,10.55
2018-03-22T12:33:31.852Z,8.90
2018-03-22T12:35:59.320Z,11.75
2018-03-22T12:38:26.797Z,11.68
2018-03-22T12:40:54.548Z,9.02
2018-03-22T12:43:22.268Z,10.38
2018-03-22T12:45:49.780Z,10.85
2018-03-22T12:48:17.450Z,8.50
2018-03-22T12:50:44.995Z,8.73
2018-03-22T12:53:12.452Z,8.98
2018-03-22T12:55:39.921Z,9.27
2018-03-22T12:58:07.368Z,8.13
2018-03-22T13:00:34.840Z,8.70
2018-03-22T13:03:02.503Z,8.13
2018-03-22T13:05:30.045Z,8.43
2018-03-22T13:07:57.522Z,9.35
2018-03-22T13:10:25.271Z,8.93
2018-03-22T13:12:52.949Z,9.00
2018-03-22T13:15:20.410Z,8.27
2018-03-22T13:17:47.951Z,7.65
2018-03-22T13:20:15.413Z,8.25
2018-03-22T13:22:44.387Z,7.60
2018-03-22T13:25:11.862Z,8.07
2018-03-22T13:27:39.335Z,9.05
2018-03-22T13:30:07.087Z,8.25
2018-03-22T13:32:34.584Z,7.55
2018-03-22T13:35:02.317Z,8.00
2018-03-22T13:37:30.563Z,8.60
2018-03-22T13:39:58.144Z,8.30
2018-03-22T13:42:25.626Z,8.15
2018-03-22T13:44:53.106Z,8.23
2018-03-22T13:47:20.577Z,7.57
2018-03-22T13:49:48.068Z,7.95
2018-03-22T13:52:15.759Z,7.70
2018-03-22T13:54:43.236Z,7.15
2018-03-22T13:57:10.879Z,8.93
2018-03-22T13:59:38.811Z,8.18
2018-03-22T14:02:06.301Z,8.27
2018-03-22T14:04:34.556Z,7.82
2018-03-22T14:07:02.020Z,8.38
2018-03-22T14:09:29.808Z,9.80
2018-03-22T14:11:57.504Z,7.68
2018-03-22T14:14:25.036Z,7.10
2018-03-22T14:16:52.626Z,7.50
2018-03-22T14:19:20.100Z,6.97
2018-03-22T14:21:47.620Z,6.25
2018-03-22T14:24:15.099Z,6.12
2018-03-22T14:26:42.612Z,6.80
2018-03-22T14:29:10.077Z,5.95
2018-03-22T14:31:37.764Z,6.90
2018-03-22T14:34:05.253Z,5.43
2018-03-22T14:36:32.715Z,5.30
2018-03-22T14:39:00.204Z,4.93
2018-03-22T14:41:27.679Z,5.10
2018-03-22T14:43:55.423Z,4.43
2018-03-22T14:46:22.899Z,3.75
2018-03-22T14:48:50.366Z,4.50
2018-03-22T14:51:18.043Z,3.92
2018-03-22T14:53:45.508Z,3.03
2018-03-22T14:56:12.975Z,4.12
2018-03-22T14:58:40.440Z,3.65
2018-03-22T15:01:07.933Z,3.30
2018-03-22T15:03:35.726Z,3.90
2018-03-22T15:06:03.468Z,3.25
2018-03-22T15:08:30.953Z,4.00
2018-03-22T15:10:58.618Z,4.30
2018-03-22T15:13:26.083Z,3.50
2018-03-22T15:15:53.536Z,3.28
2018-03-22T15:18:21.076Z,3.65
2018-03-22T15:20:48.750Z,3.37
2018-03-22T15:23:16.203Z,3.58
2018-03-22T15:25:43.672Z,2.65
2018-03-22T15:28:11.135Z,4.60
2018-03-22T15:30:38.592Z,3.62
2018-03-22T15:33:06.047Z,3.35
2018-03-22T15:35:33.532Z,3.20
2018-03-22T15:38:00.989Z,2.90
2018-03-22T15:40:28.448Z,4.00
2018-03-22T15:42:55.923Z,2.20
2018-03-22T15:45:23.392Z,3.45
2018-03-22T15:47:50.853Z,3.45
2018-03-22T15:50:18.316Z,1.98
2018-03-22T15:52:46.094Z,2.70
2018-03-22T15:55:13.550Z,2.65
2018-03-22T15:57:41.008Z,2.35
2018-03-22T16:00:08.507Z,2.62
2018-03-22T16:02:35.938Z,3.28
2018-03-22T16:05:03.398Z,2.53
2018-03-22T16:07:31.660Z,2.85
2018-03-22T16:09:59.125Z,2.50
2018-03-22T16:12:26.582Z,3.15
2018-03-22T16:14:54.038Z,2.80
2018-03-22T16:17:21.514Z,2.60
2018-03-22T16:19:49.049Z,3.65
2018-03-22T16:22:16.812Z,3.40
2018-03-22T16:24:44.582Z,3.50
2018-03-22T16:27:12.346Z,2.62
2018-03-22T16:29:40.110Z,2.87
2018-03-22T16:32:07.569Z,3.40
2018-03-22T16:34:35.078Z,4.00
2018-03-22T16:37:02.621Z,2.80
2018-03-22T16:39:30.856Z,3.00
2018-03-22T16:41:58.320Z,2.78
2018-03-22T16:44:25.779Z,3.10
2018-03-22T16:46:53.251Z,2.40
2018-03-22T16:49:20.708Z,3.28
2018-03-22T16:51:48.163Z,2.92
2018-03-22T16:54:15.625Z,3.28
2018-03-22T16:56:43.088Z,3.35
2018-03-22T16:59:10.849Z,2.95
2018-03-22T17:01:38.596Z,2.30
2018-03-22T17:04:06.345Z,2.97
2018-03-22T17:06:33.808Z,2.95
2018-03-22T17:09:01.278Z,4.18
2018-03-22T17:11:28.768Z,3.03
2018-03-22T17:13:56.540Z,3.85
2018-03-22T17:16:24.013Z,2.80
2018-03-22T17:18:51.460Z,4.37
2018-03-22T17:21:18.920Z,3.70
2018-03-22T17:23:46.384Z,4.05
2018-03-22T17:26:14.100Z,3.87
2018-03-22T17:28:41.569Z,4.05
2018-03-22T17:31:09.030Z,3.42
2018-03-22T17:33:36.486Z,4.00
2018-03-22T17:36:04.244Z,3.65
2018-03-22T17:38:32.553Z,3.35
2018-03-22T17:40:59.988Z,4.93
2018-03-22T17:43:28.377Z,3.65
2018-03-22T17:45:55.852Z,4.43
2018-03-22T17:48:23.442Z,3.37
2018-03-22T17:50:50.861Z,3.33
2018-03-22T17:53:18.315Z,3.10
2018-03-22T17:55:45.809Z,3.35
2018-03-22T17:58:13.422Z,3.87
2018-03-22T18:00:40.921Z,3.75
2018-03-22T18:03:08.392Z,3.22
2018-03-22T18:05:35.868Z,3.78
2018-03-22T18:08:03.331Z,2.97
2018-03-22T18:10:30.794Z,2.50
2018-03-22T18:12:58.241Z,3.37
2018-03-22T18:15:26.024Z,3.62
2018-03-22T18:17:53.790Z,2.47
2018-03-22T18:20:21.252Z,3.87
2018-03-22T18:22:48.719Z,3.25
2018-03-22T18:25:16.259Z,3.20
2018-03-22T18:27:43.936Z,2.53
2018-03-22T18:30:11.692Z,2.37
2018-03-22T18:32:39.156Z,1.92
2018-03-22T18:35:06.613Z,2.55
2018-03-22T18:37:34.064Z,2.83
2018-03-22T18:40:01.831Z,2.50
2018-03-22T18:42:29.626Z,2.70
2018-03-22T18:44:57.052Z,2.90
2018-03-22T18:47:24.828Z,3.10
2018-03-22T18:49:52.275Z,2.95
2018-03-22T18:52:20.048Z,2.85
2018-03-22T18:54:47.816Z,2.30
2018-03-22T18:57:15.483Z,3.08
2018-03-22T18:59:43.031Z,3.22
2018-03-22T19:02:10.493Z,3.42
2018-03-22T19:04:37.944Z,3.78
2018-03-22T19:07:05.715Z,2.62
2018-03-22T19:09:33.167Z,3.15
2018-03-22T19:12:00.632Z,3.62
2018-03-22T19:14:28.084Z,2.80
2018-03-22T19:16:55.545Z,3.40
2018-03-22T19:19:23.015Z,3.15
2018-03-22T19:21:50.468Z,4.65
2018-03-22T19:24:18.224Z,4.22
2018-03-22T19:26:45.692Z,3.25
2018-03-22T19:29:13.455Z,4.40
2018-03-22T19:31:40.922Z,4.75
2018-03-22T19:34:08.384Z,5.32
2018-03-22T19:36:36.128Z,5.05
2018-03-22T19:39:03.593Z,6.32
2018-03-22T19:41:31.311Z,6.25
2018-03-22T19:43:58.808Z,4.05
2018-03-22T19:46:26.263Z,6.25
2018-03-22T19:48:53.727Z,5.25
2018-03-22T19:51:21.413Z,5.57
2018-03-22T19:53:48.952Z,5.20
2018-03-22T19:56:16.412Z,4.90
2018-03-22T19:58:43.975Z,5.70
2018-03-22T20:01:11.617Z,6.68
2018-03-22T20:03:39.390Z,6.12
2018-03-22T20:06:06.856Z,6.05
2018-03-22T20:08:34.376Z,8.32
2018-03-22T20:11:01.872Z,7.40
2018-03-22T20:13:29.448Z,6.70
2018-03-22T20:15:56.918Z,8.48
2018-03-22T20:18:24.371Z,8.90
2018-03-22T20:20:52.112Z,9.10
2018-03-22T20:23:19.676Z,10.15
2018-03-22T20:25:47.598Z,9.23
2018-03-22T20:28:15.213Z,9.63
2018-03-22T20:30:42.827Z,9.32
2018-03-22T20:33:10.291Z,8.85
2018-03-22T20:35:37.795Z,12.30
2018-03-22T20:38:05.275Z,10.57
2018-03-22T20:40:32.737Z,11.25
2018-03-22T20:43:00.192Z,11.88
2018-03-22T20:45:27.669Z,12.05
2018-03-22T20:47:55.176Z,12.55
2018-03-22T20:50:22.856Z,12.70
2018-03-22T20:52:50.400Z,12.23
2018-03-22T20:55:18.167Z,13.60
2018-03-22T20:57:45.631Z,13.73
2018-03-22T21:00:13.091Z,14.05
2018-03-22T21:02:40.552Z,14.90
2018-03-22T21:05:08.312Z,13.82
2018-03-22T21:07:35.977Z,15.05
2018-03-22T21:10:03.460Z,14.57
2018-03-22T21:12:30.920Z,17.05
2018-03-22T21:14:58.442Z,14.65
2018-03-22T21:17:25.916Z,17.30
2018-03-22T21:19:53.372Z,17.40
2018-03-22T21:22:21.105Z,16.40
2018-03-22T21:24:48.580Z,16.80
2018-03-22T21:27:16.344Z,15.07
2018-03-22T21:29:43.807Z,16.42
2018-03-22T21:32:11.567Z,16.23
2018-03-22T21:34:39.032Z,14.95
2018-03-22T21:37:06.495Z,13.82
2018-03-22T21:39:34.247Z,15.48
2018-03-22T21:42:06.348Z,15.73
2018-03-22T21:44:33.808Z,16.23
2018-03-22T21:47:13.075Z,14.98
2018-03-22T21:49:40.590Z,15.85
2018-03-22T21:52:19.860Z,16.12
2018-03-22T21:54:47.324Z,13.50
2018-03-22T21:57:15.029Z,14.00
2018-03-22T21:59:42.508Z,16.40
2018-03-22T22:02:10.256Z,15.98
2018-03-22T22:04:37.717Z,14.77
2018-03-22T22:07:05.474Z,15.20
2018-03-22T22:09:32.929Z,15.05
2018-03-22T22:12:00.620Z,14.43
2018-03-22T22:14:28.155Z,13.10
2018-03-22T22:16:55.920Z,12.40
2018-03-22T22:19:23.379Z,12.90
2018-03-22T22:21:51.068Z,12.98
2018-03-22T22:24:18.599Z,13.45
2018-03-22T22:26:46.055Z,12.60
2018-03-22T22:29:15.049Z,11.65
2018-03-22T22:31:42.515Z,13.95
2018-03-22T22:34:10.052Z,14.15
2018-03-22T22:36:37.534Z,12.02
2018-03-22T22:39:04.983Z,13.13
2018-03-22T22:41:32.712Z,12.65
2018-03-22T22:44:00.188Z,12.60
2018-03-22T22:46:27.647Z,12.43
2018-03-22T22:48:55.247Z,12.32
2018-03-22T22:51:22.762Z,14.13
2018-03-22T22:53:50.220Z,15.15
2018-03-22T22:56:18.011Z,12.80
2018-03-22T22:58:45.688Z,13.57
2018-03-22T23:01:13.145Z,13.05
2018-03-22T23:03:40.611Z,12.37
2018-03-22T23:06:08.148Z,14.05
2018-03-22T23:08:35.619Z,13.48
2018-03-22T23:11:03.376Z,13.73
2018-03-22T23:13:30.842Z,14.60
2018-03-22T23:15:58.369Z,13.73
2018-03-22T23:18:25.790Z,14.82
2018-03-22T23:20:53.244Z,15.02
2018-03-22T23:23:21.042Z,15.77
2018-03-22T23:25:48.688Z,16.00
2018-03-22T23:28:16.193Z,14.30
2018-03-22T23:30:43.655Z,16.95
2018-03-22T23:33:11.430Z,13.70
2018-03-22T23:35:39.095Z,14.73
2018-03-22T23:38:06.556Z,15.00
2018-03-22T23:40:34.101Z,16.58
2018-03-22T23:43:01.554Z,16.60
2018-03-22T23:45:29.046Z,15.27
2018-03-22T23:47:56.776Z,14.00
2018-03-22T23:50:24.458Z,16.10
2018-03-22T23:52:51.933Z,16.62
2018-03-22T23:55:19.403Z,15.68
2018-03-22T23:57:46.917Z,15.07
